Time;durP1;ratioP1;P1;durP2;ratioP2;P2;SDS_P1;SDS_P2;PMS_P1;PMS_P2;Temp;Humidity;BMP_temperature;BMP_pressure;BME280_temperature;BME280_humidity;BME280_pressure;Samples;Min_cycle;Max_cycle;Signal;HPM_P1;HPM_P2
2022/12/09 00:00:51;;;;;;;;;;;4.90;99.90;;;;;;5092597;28;19999;-83
2022/12/09 00:03:17;;;;;;;;;;;4.90;99.90;;;;;;5092459;28;19908;-83
2022/12/09 00:05:42;;;;;;;;;;;4.90;99.90;;;;;;5091456;28;19908;-83
2022/12/09 00:08:08;;;;;;;;;;;4.90;99.90;;;;;;5091394;28;19947;-83
2022/12/09 00:10:33;;;;;;;;;;;4.90;99.90;;;;;;5091549;28;19908;-83
2022/12/09 00:12:58;;;;;;;;;;;4.80;99.90;;;;;;5090893;28;19916;-83
2022/12/09 00:15:24;;;;;;;;;;;4.90;99.90;;;;;;5091637;28;20285;-83
2022/12/09 00:17:49;;;;;;;;;;;4.80;99.90;;;;;;5092861;28;19927;-83
2022/12/09 00:20:15;;;;;;;;;;;4.90;99.90;;;;;;5091465;28;19908;-83
2022/12/09 00:22:40;;;;;;;;;;;4.90;99.90;;;;;;5091815;28;19908;-84
2022/12/09 00:25:06;;;;;;;;;;;4.90;99.90;;;;;;5093045;28;19922;-84
2022/12/09 00:27:32;;;;;;;;;;;4.90;99.90;;;;;;5094042;28;20003;-84
2022/12/09 00:29:57;;;;;;;;;;;4.90;99.90;;;;;;5101774;28;19930;-84
2022/12/09 00:32:22;;;;;;;;;;;4.80;99.90;;;;;;5112877;28;19951;-85
2022/12/09 00:34:48;;;;;;;;;;;4.80;99.90;;;;;;5093116;28;19918;-84
2022/12/09 00:37:13;;;;;;;;;;;4.80;99.90;;;;;;5091979;28;19915;-84
2022/12/09 00:39:39;;;;;;;;;;;4.80;99.90;;;;;;5093645;28;19908;-84
2022/12/09 00:42:04;;;;;;;;;;;4.80;99.90;;;;;;5095253;28;20354;-84
2022/12/09 00:44:30;;;;;;;;;;;4.70;99.90;;;;;;5095507;28;19999;-84
2022/12/09 00:46:55;;;;;;;;;;;4.70;99.90;;;;;;5095156;28;19908;-84
2022/12/09 00:49:21;;;;;;;;;;;4.70;99.90;;;;;;5095435;28;19908;-84
2022/12/09 00:51:46;;;;;;;;;;;4.60;99.90;;;;;;5094486;28;19908;-83
2022/12/09 00:54:12;;;;;;;;;;;4.60;99.90;;;;;;5095832;28;20042;-83
2022/12/09 00:56:37;;;;;;;;;;;4.60;99.90;;;;;;5094589;28;19943;-83
2022/12/09 00:59:03;;;;;;;;;;;4.60;99.90;;;;;;5094864;28;19908;-83
2022/12/09 01:01:28;;;;;;;;;;;4.60;99.90;;;;;;5094910;28;20495;-83
2022/12/09 01:03:54;;;;;;;;;;;4.60;99.90;;;;;;5094332;28;19916;-84
2022/12/09 01:06:21;;;;;;;;;;;4.60;99.90;;;;;;5095718;28;19912;-82
2022/12/09 01:08:46;;;;;;;;;;;4.60;99.90;;;;;;5094495;28;20280;-83
2022/12/09 01:11:15;;;;;;;;;;;4.60;99.90;;;;;;5095382;28;20002;-83
2022/12/09 01:13:40;;;;;;;;;;;4.60;99.90;;;;;;5093994;28;19920;-83
2022/12/09 01:16:21;;;;;;;;;;;4.60;99.90;;;;;;5094253;28;19915;-83
2022/12/09 01:18:48;;;;;;;;;;;4.60;99.90;;;;;;5094259;28;19908;-83
2022/12/09 01:21:13;;;;;;;;;;;4.60;99.90;;;;;;5093827;28;20385;-83
2022/12/09 01:23:39;;;;;;;;;;;4.60;99.90;;;;;;5095703;28;19923;-83
2022/12/09 01:26:05;;;;;;;;;;;4.60;99.90;;;;;;5096959;28;19908;-83
2022/12/09 01:28:32;;;;;;;;;;;4.60;99.90;;;;;;5096796;28;19908;-83
2022/12/09 01:31:03;;;;;;;;;;;4.70;99.90;;;;;;5096822;28;19912;-83
2022/12/09 01:33:28;;;;;;;;;;;4.60;99.90;;;;;;5096984;28;19920;-83
2022/12/09 01:35:53;;;;;;;;;;;4.60;99.90;;;;;;5097208;28;19908;-84
2022/12/09 01:38:22;;;;;;;;;;;4.60;99.90;;;;;;5097097;28;20417;-83
2022/12/09 01:40:47;;;;;;;;;;;4.60;99.90;;;;;;5096562;28;20413;-83
2022/12/09 01:43:17;;;;;;;;;;;4.60;99.90;;;;;;5097930;28;19935;-83
2022/12/09 01:45:43;;;;;;;;;;;4.70;99.90;;;;;;5097021;28;19916;-83
2022/12/09 01:48:10;;;;;;;;;;;4.70;99.90;;;;;;5096592;28;19909;-83
2022/12/09 01:50:36;;;;;;;;;;;4.80;99.90;;;;;;5095789;28;19912;-83
2022/12/09 01:53:02;;;;;;;;;;;4.80;99.90;;;;;;5096181;28;19919;-83
2022/12/09 01:55:28;;;;;;;;;;;4.80;99.90;;;;;;5093723;28;19908;-83
2022/12/09 01:57:53;;;;;;;;;;;4.80;99.90;;;;;;5094658;28;19915;-83
2022/12/09 02:00:19;;;;;;;;;;;4.80;99.90;;;;;;5093344;28;19908;-84
2022/12/09 02:02:45;;;;;;;;;;;4.80;99.90;;;;;;5094302;28;19914;-83
2022/12/09 02:05:11;;;;;;;;;;;4.90;99.90;;;;;;5093167;28;19908;-83
2022/12/09 02:07:36;;;;;;;;;;;4.90;99.90;;;;;;5093332;28;19958;-83
2022/12/09 02:10:04;;;;;;;;;;;4.90;99.90;;;;;;5093272;28;19908;-82
2022/12/09 02:12:36;;;;;;;;;;;4.90;99.90;;;;;;5093808;28;19920;-84
2022/12/09 02:15:21;;;;;;;;;;;4.90;99.90;;;;;;5093302;28;19912;-83
2022/12/09 02:17:52;;;;;;;;;;;4.90;99.90;;;;;;5093395;28;20041;-83
2022/12/09 02:20:17;;;;;;;;;;;4.90;99.90;;;;;;5092968;28;19908;-83
2022/12/09 02:22:48;;;;;;;;;;;5.00;99.90;;;;;;5092932;28;19915;-83
2022/12/09 02:25:37;;;;;;;;;;;5.00;99.90;;;;;;5092905;28;20370;-84
2022/12/09 02:28:13;;;;;;;;;;;4.90;99.90;;;;;;5093972;28;19915;-82
2022/12/09 02:30:51;;;;;;;;;;;4.80;99.90;;;;;;5092956;28;19908;-83
2022/12/09 02:33:21;;;;;;;;;;;4.70;99.90;;;;;;5092270;28;19952;-83
2022/12/09 02:35:49;;;;;;;;;;;4.70;99.90;;;;;;5092755;28;19908;-82
2022/12/09 02:38:27;;;;;;;;;;;4.80;99.90;;;;;;5093990;28;20015;-83
2022/12/09 02:40:57;;;;;;;;;;;4.80;99.90;;;;;;5092395;28;19908;-83
2022/12/09 02:43:24;;;;;;;;;;;4.80;99.90;;;;;;5092426;28;20428;-83
2022/12/09 02:45:50;;;;;;;;;;;4.80;99.90;;;;;;5093748;28;20430;-83
2022/12/09 02:48:17;;;;;;;;;;;4.80;99.90;;;;;;5093847;28;19912;-83
2022/12/09 02:50:44;;;;;;;;;;;4.90;99.90;;;;;;5092474;28;19909;-83
2022/12/09 02:53:11;;;;;;;;;;;4.90;99.90;;;;;;5092048;28;20344;-83
2022/12/09 02:55:38;;;;;;;;;;;4.80;99.90;;;;;;5092435;28;19947;-83
2022/12/09 02:58:03;;;;;;;;;;;4.80;99.90;;;;;;5092415;28;19908;-83
2022/12/09 03:00:28;;;;;;;;;;;4.80;99.90;;;;;;5092311;28;20415;-84
2022/12/09 03:02:57;;;;;;;;;;;4.70;99.90;;;;;;5093507;28;20010;-84
2022/12/09 03:05:29;;;;;;;;;;;4.70;99.90;;;;;;5092422;28;19915;-84
2022/12/09 03:08:13;;;;;;;;;;;4.60;99.90;;;;;;5092495;28;20365;-84
2022/12/09 03:10:39;;;;;;;;;;;4.60;99.90;;;;;;5092412;28;19908;-84
2022/12/09 03:13:10;;;;;;;;;;;4.50;99.90;;;;;;5107520;22;19924;-85
2022/12/09 03:15:36;;;;;;;;;;;4.40;99.90;;;;;;5071639;28;19908;-84
2022/12/09 03:18:04;;;;;;;;;;;4.40;99.90;;;;;;5071402;28;19908;-84
2022/12/09 03:20:32;;;;;;;;;;;4.30;99.90;;;;;;5072777;28;19923;-84
2022/12/09 03:22:59;;;;;;;;;;;4.20;99.90;;;;;;5071153;28;19908;-85
2022/12/09 03:25:33;;;;;;;;;;;4.10;99.90;;;;;;5071507;28;20274;-85
2022/12/09 03:28:03;;;;;;;;;;;4.00;99.90;;;;;;5071409;28;19912;-85
2022/12/09 03:30:30;;;;;;;;;;;4.00;99.90;;;;;;5072661;28;19987;-84
2022/12/09 03:32:56;;;;;;;;;;;3.90;99.90;;;;;;5070766;28;19948;-84
2022/12/09 03:35:41;;;;;;;;;;;3.90;99.90;;;;;;5071262;28;19909;-85
2022/12/09 03:38:08;;;;;;;;;;;3.80;99.90;;;;;;5071421;28;19919;-85
2022/12/09 03:40:34;;;;;;;;;;;3.70;99.90;;;;;;5071312;28;20297;-84
2022/12/09 03:43:11;;;;;;;;;;;3.70;99.90;;;;;;5072254;28;19908;-85
2022/12/09 03:45:38;;;;;;;;;;;3.70;99.90;;;;;;5071770;28;19947;-85
2022/12/09 03:48:03;;;;;;;;;;;3.60;99.90;;;;;;5071829;28;19943;-85
2022/12/09 03:50:33;;;;;;;;;;;3.60;99.90;;;;;;5074541;28;20313;-86
2022/12/09 03:53:11;;;;;;;;;;;3.60;99.90;;;;;;5091786;28;19948;-86
2022/12/09 03:55:46;;;;;;;;;;;3.60;99.90;;;;;;5076568;28;19908;-86
2022/12/09 03:58:13;;;;;;;;;;;3.60;99.90;;;;;;5074545;28;19912;-86
2022/12/09 04:00:38;;;;;;;;;;;3.60;99.90;;;;;;5074437;28;20425;-86
2022/12/09 04:03:05;;;;;;;;;;;3.70;99.90;;;;;;5074588;28;19994;-86
2022/12/09 04:05:31;;;;;;;;;;;3.80;99.90;;;;;;5073811;28;19913;-86
2022/12/09 04:07:56;;;;;;;;;;;3.90;99.90;;;;;;5073614;28;19908;-86
2022/12/09 04:10:22;;;;;;;;;;;4.00;99.90;;;;;;5073691;28;19984;-86
2022/12/09 04:12:47;;;;;;;;;;;4.10;99.90;;;;;;5074138;28;20431;-86
2022/12/09 04:15:13;;;;;;;;;;;4.10;99.90;;;;;;5076737;28;19912;-86
2022/12/09 04:17:38;;;;;;;;;;;4.10;99.90;;;;;;5077720;28;19909;-86
2022/12/09 04:20:04;;;;;;;;;;;4.20;99.90;;;;;;5077378;28;19908;-86
2022/12/09 04:22:30;;;;;;;;;;;4.20;99.90;;;;;;5077116;28;20392;-86
2022/12/09 04:24:55;;;;;;;;;;;4.20;99.90;;;;;;5077526;28;19909;-86
2022/12/09 04:27:21;;;;;;;;;;;4.20;99.90;;;;;;5076998;28;19908;-86
2022/12/09 04:29:46;;;;;;;;;;;4.30;99.90;;;;;;5077089;28;19908;-86
2022/12/09 04:32:12;;;;;;;;;;;4.30;99.90;;;;;;5077845;28;19967;-86
2022/12/09 04:34:37;;;;;;;;;;;4.30;99.90;;;;;;5074488;28;20345;-85
2022/12/09 04:37:03;;;;;;;;;;;4.40;99.90;;;;;;5074557;28;19909;-85
2022/12/09 04:39:29;;;;;;;;;;;4.40;99.90;;;;;;5074513;28;19999;-86
2022/12/09 04:41:54;;;;;;;;;;;4.30;99.90;;;;;;5074269;28;20007;-85
2022/12/09 04:44:20;;;;;;;;;;;4.30;99.90;;;;;;5074274;28;20377;-86
2022/12/09 04:46:45;;;;;;;;;;;4.20;99.90;;;;;;5074310;28;19909;-85
2022/12/09 04:49:10;;;;;;;;;;;4.20;99.90;;;;;;5075621;28;19908;-85
2022/12/09 04:51:36;;;;;;;;;;;4.10;99.90;;;;;;5074000;28;19959;-85
2022/12/09 04:54:01;;;;;;;;;;;4.10;99.90;;;;;;5075388;28;19913;-85
2022/12/09 04:56:27;;;;;;;;;;;4.10;99.90;;;;;;5074263;28;19908;-85
2022/12/09 04:58:52;;;;;;;;;;;4.10;99.90;;;;;;5074117;28;19930;-85
2022/12/09 05:01:20;;;;;;;;;;;4.00;99.90;;;;;;5073737;28;19999;-86
2022/12/09 05:03:49;;;;;;;;;;;4.00;99.90;;;;;;5073991;28;20282;-85
2022/12/09 05:06:15;;;;;;;;;;;4.00;99.90;;;;;;5074313;28;20391;-85
2022/12/09 05:08:41;;;;;;;;;;;4.10;99.90;;;;;;5075212;28;19940;-86
2022/12/09 05:11:06;;;;;;;;;;;4.10;99.90;;;;;;5073718;28;19908;-86
2022/12/09 05:13:32;;;;;;;;;;;4.10;99.90;;;;;;5074928;28;19916;-85
2022/12/09 05:15:59;;;;;;;;;;;4.10;99.90;;;;;;5075145;28;20004;-85
2022/12/09 05:18:24;;;;;;;;;;;4.10;99.90;;;;;;5073933;28;20107;-86
2022/12/09 05:20:49;;;;;;;;;;;4.20;99.90;;;;;;5074997;28;20464;-85
2022/12/09 05:23:15;;;;;;;;;;;4.20;99.90;;;;;;5074728;28;19909;-85
2022/12/09 05:25:40;;;;;;;;;;;4.30;99.90;;;;;;5072475;28;19919;-85
2022/12/09 05:28:06;;;;;;;;;;;4.30;99.90;;;;;;5074912;28;19908;-85
2022/12/09 05:30:31;;;;;;;;;;;4.30;99.90;;;;;;5074809;28;19908;-86
2022/12/09 05:32:57;;;;;;;;;;;4.20;99.90;;;;;;5073330;28;19909;-85
2022/12/09 05:35:22;;;;;;;;;;;4.30;99.90;;;;;;5074133;28;19923;-85
2022/12/09 05:37:47;;;;;;;;;;;4.40;99.90;;;;;;5074815;28;19993;-85
2022/12/09 05:40:22;;;;;;;;;;;4.40;99.90;;;;;;5074527;28;19916;-85
2022/12/09 05:42:47;;;;;;;;;;;4.40;99.90;;;;;;5074874;28;19908;-86
2022/12/09 05:45:13;;;;;;;;;;;4.40;99.90;;;;;;5075131;28;20350;-86
2022/12/09 05:47:39;;;;;;;;;;;4.30;99.90;;;;;;5074797;28;20288;-86
2022/12/09 05:50:05;;;;;;;;;;;4.30;99.90;;;;;;5075070;28;19908;-85
2022/12/09 05:52:30;;;;;;;;;;;4.20;99.90;;;;;;5074306;28;20278;-86
2022/12/09 05:54:56;;;;;;;;;;;4.10;99.90;;;;;;5074388;28;19938;-86
2022/12/09 05:57:21;;;;;;;;;;;4.10;99.90;;;;;;5075709;28;20399;-86
2022/12/09 05:59:47;;;;;;;;;;;3.90;99.90;;;;;;5075605;28;19909;-85
2022/12/09 06:02:12;;;;;;;;;;;3.80;99.90;;;;;;5073612;28;20290;-86
2022/12/09 06:04:38;;;;;;;;;;;3.60;99.90;;;;;;5073756;28;19963;-86
2022/12/09 06:07:03;;;;;;;;;;;3.50;99.90;;;;;;5074983;28;19917;-85
2022/12/09 06:09:29;;;;;;;;;;;3.30;99.90;;;;;;5074877;28;19908;-86
2022/12/09 06:11:54;;;;;;;;;;;3.20;99.90;;;;;;5074772;28;19959;-86
2022/12/09 06:14:19;;;;;;;;;;;3.20;99.90;;;;;;5074884;28;20279;-86
2022/12/09 06:16:45;;;;;;;;;;;3.10;99.90;;;;;;5074797;28;19970;-86
2022/12/09 06:19:11;;;;;;;;;;;2.90;99.90;;;;;;5073613;28;19909;-85
2022/12/09 06:21:40;;;;;;;;;;;2.80;99.90;;;;;;5072878;28;19947;-86
2022/12/09 06:24:05;;;;;;;;;;;2.70;99.90;;;;;;5073403;28;19908;-86
2022/12/09 06:26:31;;;;;;;;;;;2.70;99.90;;;;;;5074699;28;19908;-86
2022/12/09 06:28:57;;;;;;;;;;;2.60;99.90;;;;;;5074406;28;19908;-86
2022/12/09 06:31:23;;;;;;;;;;;2.50;99.90;;;;;;5073058;28;19909;-86
2022/12/09 06:33:48;;;;;;;;;;;2.40;99.90;;;;;;5072403;28;19913;-85
2022/12/09 06:36:14;;;;;;;;;;;2.40;99.90;;;;;;5072446;28;19944;-85
2022/12/09 06:38:39;;;;;;;;;;;2.30;99.90;;;;;;5073290;28;19909;-85
2022/12/09 06:41:09;;;;;;;;;;;2.30;99.90;;;;;;5071981;28;20370;-85
2022/12/09 06:43:35;;;;;;;;;;;2.20;99.90;;;;;;5072345;28;19909;-86
2022/12/09 06:46:00;;;;;;;;;;;2.20;99.90;;;;;;5073442;28;19950;-86
2022/12/09 06:48:25;;;;;;;;;;;2.10;99.90;;;;;;5071986;28;19915;-87
2022/12/09 06:50:51;;;;;;;;;;;2.10;99.90;;;;;;5071826;28;19943;-86
2022/12/09 06:53:17;;;;;;;;;;;2.10;99.90;;;;;;5072880;28;19912;-86
2022/12/09 06:55:43;;;;;;;;;;;2.00;99.90;;;;;;5071949;28;20370;-86
2022/12/09 06:58:08;;;;;;;;;;;2.00;99.90;;;;;;5073190;28;20574;-86
2022/12/09 07:00:34;;;;;;;;;;;2.00;99.90;;;;;;5071769;28;19948;-86
2022/12/09 07:02:59;;;;;;;;;;;1.90;99.90;;;;;;5071472;28;19909;-85
2022/12/09 07:05:25;;;;;;;;;;;1.90;99.90;;;;;;5071768;28;19908;-85
2022/12/09 07:07:51;;;;;;;;;;;1.90;99.90;;;;;;5071761;28;20543;-85
2022/12/09 07:10:16;;;;;;;;;;;1.80;99.90;;;;;;5071628;28;20331;-85
2022/12/09 07:12:42;;;;;;;;;;;1.80;99.90;;;;;;5071211;28;19916;-85
2022/12/09 07:15:08;;;;;;;;;;;1.80;99.90;;;;;;5071625;28;20049;-85
2022/12/09 07:17:33;;;;;;;;;;;1.80;99.90;;;;;;5072878;28;19915;-86
2022/12/09 07:19:59;;;;;;;;;;;1.80;99.90;;;;;;5071651;28;19908;-86
2022/12/09 07:22:24;;;;;;;;;;;1.70;99.90;;;;;;5071181;28;19908;-86
2022/12/09 07:24:49;;;;;;;;;;;1.70;99.90;;;;;;5072816;28;19913;-86
2022/12/09 07:27:15;;;;;;;;;;;1.70;99.90;;;;;;5071447;28;19909;-86
2022/12/09 07:29:40;;;;;;;;;;;1.70;99.90;;;;;;5071483;28;20006;-86
2022/12/09 07:32:08;;;;;;;;;;;1.70;99.90;;;;;;5071100;28;20405;-86
2022/12/09 07:34:33;;;;;;;;;;;1.70;99.90;;;;;;5071287;28;19912;-86
2022/12/09 07:36:59;;;;;;;;;;;1.70;99.90;;;;;;5072665;28;19915;-85
2022/12/09 07:39:24;;;;;;;;;;;1.70;99.90;;;;;;5071423;28;19997;-85
2022/12/09 07:41:51;;;;;;;;;;;1.70;99.90;;;;;;5071078;28;19912;-85
2022/12/09 07:44:16;;;;;;;;;;;1.80;99.90;;;;;;5072479;28;19908;-86
2022/12/09 07:46:42;;;;;;;;;;;1.80;99.90;;;;;;5071377;28;19916;-85
2022/12/09 07:49:09;;;;;;;;;;;1.80;99.90;;;;;;5070544;28;19908;-86
2022/12/09 07:51:34;;;;;;;;;;;1.80;99.90;;;;;;5072218;28;19908;-86
2022/12/09 07:54:00;;;;;;;;;;;1.80;99.90;;;;;;5071111;28;20003;-86
2022/12/09 07:56:27;;;;;;;;;;;1.80;99.90;;;;;;5071253;28;19955;-86
2022/12/09 07:58:53;;;;;;;;;;;1.90;99.90;;;;;;5071204;28;19908;-86
2022/12/09 08:01:20;;;;;;;;;;;1.90;99.90;;;;;;5070867;28;20004;-85
2022/12/09 08:03:47;;;;;;;;;;;1.90;99.90;;;;;;5072276;28;19943;-86
2022/12/09 08:06:13;;;;;;;;;;;1.90;99.90;;;;;;5071133;28;19909;-86
2022/12/09 08:08:39;;;;;;;;;;;2.00;99.90;;;;;;5072284;28;19912;-85
2022/12/09 08:11:08;;;;;;;;;;;2.00;99.90;;;;;;5072036;28;19974;-84
2022/12/09 08:13:34;;;;;;;;;;;2.00;99.90;;;;;;5070857;28;19924;-86
2022/12/09 08:16:04;;;;;;;;;;;2.10;99.90;;;;;;5071017;28;19909;-86
2022/12/09 08:18:29;;;;;;;;;;;2.20;99.90;;;;;;5070960;28;19909;-86
2022/12/09 08:20:55;;;;;;;;;;;2.20;99.90;;;;;;5070948;28;19998;-87
2022/12/09 08:23:20;;;;;;;;;;;2.30;99.90;;;;;;5070642;28;19908;-86
2022/12/09 08:25:51;;;;;;;;;;;2.30;99.90;;;;;;5070972;28;20440;-86
2022/12/09 08:28:16;;;;;;;;;;;2.40;99.90;;;;;;5072095;28;19909;-86
2022/12/09 08:30:41;;;;;;;;;;;2.30;99.90;;;;;;5072169;28;20389;-86
2022/12/09 08:33:08;;;;;;;;;;;2.30;99.90;;;;;;5070563;28;19909;-86
2022/12/09 08:35:33;;;;;;;;;;;2.30;99.90;;;;;;5070790;28;19909;-86
2022/12/09 08:37:59;;;;;;;;;;;2.30;99.90;;;;;;5070877;28;19999;-86
2022/12/09 08:40:24;;;;;;;;;;;2.30;99.90;;;;;;5070874;28;20309;-87
2022/12/09 08:42:49;;;;;;;;;;;2.30;99.90;;;;;;5070465;28;20004;-86
2022/12/09 08:45:15;;;;;;;;;;;2.30;99.90;;;;;;5071993;28;20358;-86
2022/12/09 08:47:41;;;;;;;;;;;2.30;99.90;;;;;;5070779;28;19912;-86
2022/12/09 08:50:07;;;;;;;;;;;2.30;99.90;;;;;;5070746;28;19917;-86
2022/12/09 08:52:32;;;;;;;;;;;2.30;99.90;;;;;;5070376;28;19955;-87
2022/12/09 08:54:58;;;;;;;;;;;2.20;99.90;;;;;;5070697;28;19913;-87
2022/12/09 08:57:23;;;;;;;;;;;2.20;99.90;;;;;;5070667;28;20022;-86
2022/12/09 08:59:49;;;;;;;;;;;2.30;99.90;;;;;;5072218;28;19909;-87
2022/12/09 09:02:17;;;;;;;;;;;2.30;99.90;;;;;;5073923;28;20391;-86
2022/12/09 09:04:42;;;;;;;;;;;2.30;99.90;;;;;;5074196;28;19912;-86
2022/12/09 09:07:07;;;;;;;;;;;2.40;99.90;;;;;;5074171;28;19908;-87
2022/12/09 09:09:33;;;;;;;;;;;2.50;99.90;;;;;;5074051;28;20474;-86
2022/12/09 09:11:59;;;;;;;;;;;2.50;99.90;;;;;;5073703;28;19909;-87
2022/12/09 09:14:25;;;;;;;;;;;2.70;99.90;;;;;;5089688;22;19986;-84
2022/12/09 09:16:50;;;;;;;;;;;2.80;99.90;;;;;;5074668;28;19909;-86
2022/12/09 09:19:17;;;;;;;;;;;3.00;99.90;;;;;;5073838;28;19942;-85
2022/12/09 09:21:43;;;;;;;;;;;3.30;99.90;;;;;;5060297;28;19921;-85
2022/12/09 09:24:10;;;;;;;;;;;3.50;99.90;;;;;;5041341;28;20358;-85
2022/12/09 09:26:37;;;;;;;;;;;3.60;99.90;;;;;;5034062;28;19916;-86
2022/12/09 09:29:03;;;;;;;;;;;3.70;99.90;;;;;;5033836;28;19913;-85
2022/12/09 09:31:28;;;;;;;;;;;3.80;99.90;;;;;;5033233;28;19916;-85
2022/12/09 09:33:58;;;;;;;;;;;3.90;99.90;;;;;;5050573;28;19964;-87
2022/12/09 09:36:24;;;;;;;;;;;3.90;99.90;;;;;;5053292;28;19909;-86
2022/12/09 09:38:51;;;;;;;;;;;4.00;99.90;;;;;;5054846;28;20370;-85
2022/12/09 09:41:35;;;;;;;;;;;4.00;99.90;;;;;;5053518;28;19943;-85
2022/12/09 09:44:00;;;;;;;;;;;4.10;99.90;;;;;;5053268;28;19913;-87
2022/12/09 09:46:37;;;;;;;;;;;4.20;99.90;;;;;;5053306;28;19916;-86
2022/12/09 09:49:05;;;;;;;;;;;4.30;99.90;;;;;;5054697;28;20117;-87
2022/12/09 09:51:32;;;;;;;;;;;4.30;99.90;;;;;;5053099;28;20325;-86
2022/12/09 09:53:57;;;;;;;;;;;4.40;99.90;;;;;;5053136;28;19920;-86
2022/12/09 09:56:32;;;;;;;;;;;4.40;99.90;;;;;;5052589;28;20322;-86
2022/12/09 09:59:07;;;;;;;;;;;4.50;99.90;;;;;;5053071;28;20309;-87
2022/12/09 10:01:34;;;;;;;;;;;4.40;99.90;;;;;;5050917;28;19912;-87
2022/12/09 10:04:03;;;;;;;;;;;4.40;99.90;;;;;;5053025;28;19924;-86
2022/12/09 10:06:40;;;;;;;;;;;4.40;99.90;;;;;;5052967;28;20003;-86
2022/12/09 10:09:18;;;;;;;;;;;4.40;99.90;;;;;;5052566;28;19958;-87
2022/12/09 10:12:13;;;;;;;;;;;4.50;99.90;;;;;;5052262;28;19940;-86
2022/12/09 10:14:45;;;;;;;;;;;4.60;99.90;;;;;;5049038;28;19923;-85
2022/12/09 10:17:22;;;;;;;;;;;4.70;99.90;;;;;;5053080;28;20354;-88
2022/12/09 10:19:49;;;;;;;;;;;4.70;99.90;;;;;;5053696;28;19931;-89
2022/12/09 10:22:22;;;;;;;;;;;4.80;99.90;;;;;;5052675;28;19952;-88
2022/12/09 10:24:55;;;;;;;;;;;4.80;99.90;;;;;;5052673;28;19916;-88
2022/12/09 10:27:40;;;;;;;;;;;4.80;99.90;;;;;;5052851;28;19917;-85
2022/12/09 10:30:11;;;;;;;;;;;4.90;99.90;;;;;;5052215;28;20126;-86
2022/12/09 10:32:37;;;;;;;;;;;5.00;99.90;;;;;;5052061;28;19956;-86
2022/12/09 10:35:18;;;;;;;;;;;5.00;99.90;;;;;;5052485;28;20374;-85
2022/12/09 10:37:44;;;;;;;;;;;5.10;99.90;;;;;;5052661;28;20259;-88
2022/12/09 10:40:10;;;;;;;;;;;5.10;99.90;;;;;;5053091;28;19909;-88
2022/12/09 10:45:50;;;;;;;;;;;5.20;99.90;;;;;;5053684;28;19916;-89
2022/12/09 10:48:18;;;;;;;;;;;5.30;99.90;;;;;;5050606;28;19909;-86
2022/12/09 10:50:44;;;;;;;;;;;5.30;99.90;;;;;;5049232;28;19920;-88
2022/12/09 10:53:11;;;;;;;;;;;5.50;99.90;;;;;;5051660;28;19909;-85
2022/12/09 10:55:38;;;;;;;;;;;5.70;99.90;;;;;;5049918;28;20374;-86
2022/12/09 10:58:14;;;;;;;;;;;5.80;99.90;;;;;;5052114;28;19908;-84
2022/12/09 11:00:40;;;;;;;;;;;6.00;99.90;;;;;;5052178;28;19908;-86
2022/12/09 11:03:21;;;;;;;;;;;6.10;99.90;;;;;;5051527;28;20416;-83
2022/12/09 11:05:53;;;;;;;;;;;6.30;99.90;;;;;;5052038;28;19912;-83
2022/12/09 11:08:22;;;;;;;;;;;6.40;99.90;;;;;;5052241;28;19967;-84
2022/12/09 11:10:48;;;;;;;;;;;6.60;99.90;;;;;;5051434;28;20269;-85
2022/12/09 11:13:15;;;;;;;;;;;6.60;99.90;;;;;;5052626;28;19966;-85
2022/12/09 11:15:43;;;;;;;;;;;6.60;99.90;;;;;;5051550;28;19916;-86
2022/12/09 11:18:14;;;;;;;;;;;6.70;99.90;;;;;;5051583;28;20003;-85
2022/12/09 11:20:40;;;;;;;;;;;6.60;99.90;;;;;;5051140;28;19915;-85
2022/12/09 11:23:15;;;;;;;;;;;6.60;99.90;;;;;;5051921;28;20374;-85
2022/12/09 11:26:00;;;;;;;;;;;6.70;99.90;;;;;;5052380;28;19944;-85
2022/12/09 11:28:28;;;;;;;;;;;6.70;99.90;;;;;;5051653;28;19909;-85
2022/12/09 11:30:58;;;;;;;;;;;6.70;99.90;;;;;;5051090;28;19919;-85
2022/12/09 11:33:26;;;;;;;;;;;6.70;99.90;;;;;;5050846;28;20358;-84
2022/12/09 11:35:54;;;;;;;;;;;6.90;99.90;;;;;;5050548;28;19908;-85
2022/12/09 11:38:28;;;;;;;;;;;6.80;99.90;;;;;;5051731;28;19935;-84
2022/12/09 11:41:06;;;;;;;;;;;6.70;99.90;;;;;;5057683;28;20301;-85
2022/12/09 11:43:38;;;;;;;;;;;6.80;99.90;;;;;;5034764;28;19909;-86
2022/12/09 11:46:12;;;;;;;;;;;6.90;99.90;;;;;;5031038;28;19920;-86
2022/12/09 11:48:46;;;;;;;;;;;7.20;99.90;;;;;;5041613;28;19913;-85
2022/12/09 11:51:19;;;;;;;;;;;7.10;99.90;;;;;;5051804;28;19962;-83
2022/12/09 11:53:45;;;;;;;;;;;7.40;99.90;;;;;;5051510;28;19912;-84
2022/12/09 11:56:18;;;;;;;;;;;7.60;99.90;;;;;;5051452;28;20575;-85
2022/12/09 11:58:50;;;;;;;;;;;7.80;99.90;;;;;;5052322;28;19909;-85
2022/12/09 12:01:24;;;;;;;;;;;7.90;99.90;;;;;;5051767;28;19959;-86
2022/12/09 12:04:00;;;;;;;;;;;8.00;99.90;;;;;;5051095;28;19915;-86
2022/12/09 12:06:33;;;;;;;;;;;8.10;99.90;;;;;;5052118;28;20365;-87
2022/12/09 12:09:03;;;;;;;;;;;8.20;99.90;;;;;;5051045;28;19913;-86
2022/12/09 12:11:35;;;;;;;;;;;8.40;99.90;;;;;;5050375;28;19913;-86
2022/12/09 12:14:10;;;;;;;;;;;8.30;99.90;;;;;;5050692;28;19921;-85
2022/12/09 12:17:01;;;;;;;;;;;8.20;99.90;;;;;;5050806;28;19909;-85
2022/12/09 12:19:30;;;;;;;;;;;8.10;99.90;;;;;;5051327;28;19954;-86
2022/12/09 12:21:59;;;;;;;;;;;8.50;99.90;;;;;;5050231;28;19909;-85
2022/12/09 12:24:33;;;;;;;;;;;9.70;99.90;;;;;;5050818;28;19909;-86
2022/12/09 12:27:05;;;;;;;;;;;10.50;99.90;;;;;;5051966;28;19909;-85
2022/12/09 12:29:30;;;;;;;;;;;10.40;99.90;;;;;;5050792;28;20378;-85
2022/12/09 12:32:14;;;;;;;;;;;10.10;99.90;;;;;;5050438;28;19916;-85
2022/12/09 12:34:40;;;;;;;;;;;9.80;99.90;;;;;;5050523;28;19913;-84
2022/12/09 12:37:05;;;;;;;;;;;9.30;99.90;;;;;;5054781;28;20050;-85
2022/12/09 12:39:31;;;;;;;;;;;9.10;99.90;;;;;;5054922;28;19909;-85
2022/12/09 12:42:19;;;;;;;;;;;8.80;99.90;;;;;;5054708;28;19916;-85
2022/12/09 12:48:05;;;;;;;;;;;8.70;99.90;;;;;;5078676;28;19966;-84
2022/12/09 12:50:34;;;;;;;;;;;8.80;99.90;;;;;;5065722;28;20251;-85
2022/12/09 12:53:02;;;;;;;;;;;9.00;99.90;;;;;;5056415;28;19909;-85
2022/12/09 12:55:34;;;;;;;;;;;9.40;99.90;;;;;;5055763;28;20263;-85
2022/12/09 12:58:15;;;;;;;;;;;10.40;99.90;;;;;;5055762;28;20262;-85
2022/12/09 13:00:40;;;;;;;;;;;10.80;99.90;;;;;;5055062;28;19924;-85
2022/12/09 13:03:25;;;;;;;;;;;10.80;99.90;;;;;;5055220;28;19913;-85
2022/12/09 13:05:52;;;;;;;;;;;10.60;99.90;;;;;;5055502;28;20363;-85
2022/12/09 13:08:31;;;;;;;;;;;10.20;99.90;;;;;;5056897;28;19997;-85
2022/12/09 13:10:58;;;;;;;;;;;9.90;99.90;;;;;;5055069;28;19958;-85
2022/12/09 13:13:33;;;;;;;;;;;9.50;99.90;;;;;;5055296;28;19917;-85
2022/12/09 13:16:13;;;;;;;;;;;9.20;99.90;;;;;;5055014;28;19909;-86
2022/12/09 13:18:39;;;;;;;;;;;9.10;99.90;;;;;;5055187;28;19960;-85
2022/12/09 13:21:05;;;;;;;;;;;9.30;99.90;;;;;;5054807;28;19974;-85
2022/12/09 13:23:43;;;;;;;;;;;9.80;99.90;;;;;;5054832;28;19909;-86
2022/12/09 13:26:32;;;;;;;;;;;11.00;99.90;;;;;;5055084;28;19913;-85
2022/12/09 13:29:09;;;;;;;;;;;12.10;99.90;;;;;;5049232;28;19917;-85
2022/12/09 13:31:37;;;;;;;;;;;12.00;99.90;;;;;;5054622;28;20003;-85
2022/12/09 13:34:07;;;;;;;;;;;11.60;99.90;;;;;;5054740;28;19920;-85
2022/12/09 13:36:40;;;;;;;;;;;11.20;99.90;;;;;;5054472;28;20110;-85
2022/12/09 13:39:08;;;;;;;;;;;10.80;99.90;;;;;;5054451;28;20381;-84
2022/12/09 13:42:51;;;;;;;;;;;10.40;99.90;;;;;;5055863;28;19966;-85
2022/12/09 13:44:20;;;;;;;;;;;10.20;99.90;;;;;;5055786;28;19909;-84
2022/12/09 13:46:46;;;;;;;;;;;9.90;99.90;;;;;;5053540;28;20426;-83
2022/12/09 13:49:17;;;;;;;;;;;9.80;99.90;;;;;;5054501;28;19932;-83
2022/12/09 13:51:44;;;;;;;;;;;9.70;99.90;;;;;;5053030;28;19920;-83
2022/12/09 13:54:13;;;;;;;;;;;9.70;99.90;;;;;;5044415;28;19913;-82
2022/12/09 13:56:39;;;;;;;;;;;9.70;99.90;;;;;;5033744;28;19914;-83
2022/12/09 13:59:08;;;;;;;;;;;9.60;99.90;;;;;;5033491;28;19976;-83
2022/12/09 14:01:36;;;;;;;;;;;9.40;99.90;;;;;;5050116;28;20367;-83
2022/12/09 14:04:04;;;;;;;;;;;9.00;99.90;;;;;;5034533;28;19910;-84
2022/12/09 14:06:30;;;;;;;;;;;8.70;99.90;;;;;;5034624;28;19984;-82
2022/12/09 14:08:58;;;;;;;;;;;8.50;99.90;;;;;;5049891;28;19960;-82
2022/12/09 14:11:36;;;;;;;;;;;8.30;99.90;;;;;;5034151;28;19913;-82
2022/12/09 14:14:20;;;;;;;;;;;8.00;99.90;;;;;;5057222;28;19923;-84
2022/12/09 14:16:45;;;;;;;;;;;7.80;99.90;;;;;;5045324;28;19909;-83
2022/12/09 14:19:23;;;;;;;;;;;7.60;99.90;;;;;;5053648;28;19909;-83
2022/12/09 14:22:11;;;;;;;;;;;7.30;99.90;;;;;;5040754;28;19924;-82
2022/12/09 14:24:37;;;;;;;;;;;7.10;99.90;;;;;;5052553;28;20379;-83
2022/12/09 14:27:03;;;;;;;;;;;6.90;99.90;;;;;;5049742;28;20023;-82
2022/12/09 14:29:42;;;;;;;;;;;6.70;99.90;;;;;;5044847;28;19909;-85
2022/12/09 14:32:24;;;;;;;;;;;6.60;99.90;;;;;;5033400;28;19958;-82
2022/12/09 14:35:08;;;;;;;;;;;6.50;99.90;;;;;;5032211;28;20003;-83
2022/12/09 14:37:43;;;;;;;;;;;6.30;99.90;;;;;;5032384;28;19960;-83
2022/12/09 14:40:30;;;;;;;;;;;6.20;99.90;;;;;;5032256;28;20335;-84
2022/12/09 14:43:06;;;;;;;;;;;6.10;99.90;;;;;;5032308;28;19909;-85